sensor_id;sensor_type;location;lat;lon;timestamp;P1;durP1;ratioP1;P2;durP2;ratioP2
28844;SDS011;15976;47.938;7.758;2024-01-15T00:00:30;63.85;;;30.17;;
28844;SDS011;15976;47.938;7.758;2024-01-15T00:02:57;68.05;;;30.92;;
28844;SDS011;15976;47.938;7.758;2024-01-15T00:05:24;60.50;;;30.27;;
28844;SDS011;15976;47.938;7.758;2024-01-15T00:07:51;66.40;;;31.55;;
28844;SDS011;15976;47.938;7.758;2024-01-15T00:10:18;63.15;;;30.30;;
28844;SDS011;15976;47.938;7.758;2024-01-15T00:12:45;65.85;;;31.52;;
28844;SDS011;15976;47.938;7.758;2024-01-15T00:15:12;67.72;;;31.27;;
28844;SDS011;15976;47.938;7.758;2024-01-15T00:17:39;63.92;;;30.05;;
28844;SDS011;15976;47.938;7.758;2024-01-15T00:20:07;67.63;;;30.08;;
28844;SDS011;15976;47.938;7.758;2024-01-15T00:22:34;64.20;;;29.92;;
28844;SDS011;15976;47.938;7.758;2024-01-15T00:25:04;66.57;;;32.85;;
28844;SDS011;15976;47.938;7.758;2024-01-15T00:27:31;66.97;;;30.92;;
28844;SDS011;15976;47.938;7.758;2024-01-15T00:29:58;65.25;;;31.48;;
28844;SDS011;15976;47.938;7.758;2024-01-15T00:32:25;64.63;;;31.42;;
28844;SDS011;15976;47.938;7.758;2024-01-15T00:34:52;69.93;;;31.77;;
28844;SDS011;15976;47.938;7.758;2024-01-15T00:37:20;64.80;;;30.40;;
28844;SDS011;15976;47.938;7.758;2024-01-15T00:39:47;73.00;;;33.75;;
28844;SDS011;15976;47.938;7.758;2024-01-15T00:42:14;69.93;;;33.70;;
28844;SDS011;15976;47.938;7.758;2024-01-15T00:44:42;74.30;;;34.30;;
28844;SDS011;15976;47.938;7.758;2024-01-15T00:47:09;73.28;;;32.80;;
28844;SDS011;15976;47.938;7.758;2024-01-15T00:49:36;74.65;;;34.33;;
28844;SDS011;15976;47.938;7.758;2024-01-15T00:52:03;72.43;;;32.80;;
28844;SDS011;15976;47.938;7.758;2024-01-15T00:54:30;70.00;;;33.03;;
28844;SDS011;15976;47.938;7.758;2024-01-15T00:56:57;71.03;;;31.13;;
28844;SDS011;15976;47.938;7.758;2024-01-15T00:59:24;72.00;;;32.13;;
28844;SDS011;15976;47.938;7.758;2024-01-15T01:01:51;64.00;;;29.30;;
28844;SDS011;15976;47.938;7.758;2024-01-15T01:04:18;65.18;;;30.13;;
28844;SDS011;15976;47.938;7.758;2024-01-15T01:06:45;64.93;;;29.55;;
28844;SDS011;15976;47.938;7.758;2024-01-15T01:09:12;64.60;;;30.25;;
28844;SDS011;15976;47.938;7.758;2024-01-15T01:11:40;64.50;;;30.42;;
28844;SDS011;15976;47.938;7.758;2024-01-15T01:14:07;53.95;;;26.15;;
28844;SDS011;15976;47.938;7.758;2024-01-15T01:16:34;56.17;;;26.55;;
28844;SDS011;15976;47.938;7.758;2024-01-15T01:19:06;55.75;;;26.80;;
28844;SDS011;15976;47.938;7.758;2024-01-15T01:21:34;58.63;;;27.27;;
28844;SDS011;15976;47.938;7.758;2024-01-15T01:24:01;57.75;;;27.50;;
28844;SDS011;15976;47.938;7.758;2024-01-15T01:26:28;60.78;;;28.65;;
28844;SDS011;15976;47.938;7.758;2024-01-15T01:28:55;62.83;;;28.48;;
28844;SDS011;15976;47.938;7.758;2024-01-15T01:31:23;58.13;;;27.13;;
28844;SDS011;15976;47.938;7.758;2024-01-15T01:33:50;58.30;;;27.55;;
28844;SDS011;15976;47.938;7.758;2024-01-15T01:36:17;49.85;;;24.35;;
28844;SDS011;15976;47.938;7.758;2024-01-15T01:38:45;56.25;;;25.88;;
28844;SDS011;15976;47.938;7.758;2024-01-15T01:41:12;57.65;;;25.45;;
28844;SDS011;15976;47.938;7.758;2024-01-15T01:43:39;55.92;;;25.77;;
28844;SDS011;15976;47.938;7.758;2024-01-15T01:46:06;49.92;;;24.30;;
28844;SDS011;15976;47.938;7.758;2024-01-15T01:48:34;51.33;;;24.15;;
28844;SDS011;15976;47.938;7.758;2024-01-15T01:51:03;50.42;;;23.73;;
28844;SDS011;15976;47.938;7.758;2024-01-15T01:53:32;46.28;;;21.80;;
28844;SDS011;15976;47.938;7.758;2024-01-15T01:56:01;38.67;;;20.23;;
28844;SDS011;15976;47.938;7.758;2024-01-15T01:58:29;38.90;;;19.33;;
28844;SDS011;15976;47.938;7.758;2024-01-15T02:00:58;41.20;;;19.35;;
28844;SDS011;15976;47.938;7.758;2024-01-15T02:03:27;39.50;;;18.98;;
28844;SDS011;15976;47.938;7.758;2024-01-15T02:05:55;37.17;;;18.17;;
28844;SDS011;15976;47.938;7.758;2024-01-15T02:08:22;34.50;;;17.23;;
28844;SDS011;15976;47.938;7.758;2024-01-15T02:10:49;38.70;;;17.17;;
28844;SDS011;15976;47.938;7.758;2024-01-15T02:13:17;32.17;;;16.20;;
28844;SDS011;15976;47.938;7.758;2024-01-15T02:15:44;36.78;;;16.33;;
28844;SDS011;15976;47.938;7.758;2024-01-15T02:18:12;33.25;;;15.85;;
28844;SDS011;15976;47.938;7.758;2024-01-15T02:20:39;44.53;;;19.75;;
28844;SDS011;15976;47.938;7.758;2024-01-15T02:23:13;52.42;;;24.55;;
28844;SDS011;15976;47.938;7.758;2024-01-15T02:25:42;51.97;;;25.35;;
28844;SDS011;15976;47.938;7.758;2024-01-15T02:28:12;54.55;;;25.77;;
28844;SDS011;15976;47.938;7.758;2024-01-15T02:30:43;59.58;;;27.27;;
28844;SDS011;15976;47.938;7.758;2024-01-15T02:33:12;65.15;;;28.70;;
28844;SDS011;15976;47.938;7.758;2024-01-15T02:35:39;56.58;;;24.77;;
28844;SDS011;15976;47.938;7.758;2024-01-15T02:38:07;66.78;;;30.63;;
28844;SDS011;15976;47.938;7.758;2024-01-15T02:40:34;70.65;;;31.80;;
28844;SDS011;15976;47.938;7.758;2024-01-15T02:43:02;71.53;;;30.77;;
28844;SDS011;15976;47.938;7.758;2024-01-15T02:45:29;74.30;;;32.45;;
28844;SDS011;15976;47.938;7.758;2024-01-15T02:47:56;69.60;;;31.42;;
28844;SDS011;15976;47.938;7.758;2024-01-15T02:50:24;64.78;;;30.92;;
28844;SDS011;15976;47.938;7.758;2024-01-15T02:52:51;71.28;;;31.67;;
28844;SDS011;15976;47.938;7.758;2024-01-15T02:55:18;71.50;;;32.03;;
28844;SDS011;15976;47.938;7.758;2024-01-15T02:57:45;70.53;;;31.52;;
28844;SDS011;15976;47.938;7.758;2024-01-15T03:00:13;76.10;;;32.33;;
28844;SDS011;15976;47.938;7.758;2024-01-15T03:02:40;71.40;;;31.15;;
28844;SDS011;15976;47.938;7.758;2024-01-15T03:05:13;69.57;;;31.33;;
28844;SDS011;15976;47.938;7.758;2024-01-15T03:07:41;67.15;;;31.15;;
28844;SDS011;15976;47.938;7.758;2024-01-15T03:10:08;61.55;;;28.83;;
28844;SDS011;15976;47.938;7.758;2024-01-15T03:12:36;63.40;;;29.00;;
28844;SDS011;15976;47.938;7.758;2024-01-15T03:15:03;63.28;;;28.73;;
28844;SDS011;15976;47.938;7.758;2024-01-15T03:17:30;63.30;;;28.05;;
28844;SDS011;15976;47.938;7.758;2024-01-15T03:19:58;56.97;;;26.02;;
28844;SDS011;15976;47.938;7.758;2024-01-15T03:22:25;57.97;;;25.98;;
28844;SDS011;15976;47.938;7.758;2024-01-15T03:24:53;55.97;;;24.63;;
28844;SDS011;15976;47.938;7.758;2024-01-15T03:27:20;56.17;;;24.92;;
28844;SDS011;15976;47.938;7.758;2024-01-15T03:29:47;52.40;;;23.73;;
28844;SDS011;15976;47.938;7.758;2024-01-15T03:32:14;53.42;;;23.05;;
28844;SDS011;15976;47.938;7.758;2024-01-15T03:34:42;46.90;;;20.75;;
28844;SDS011;15976;47.938;7.758;2024-01-15T03:37:10;48.85;;;21.08;;
28844;SDS011;15976;47.938;7.758;2024-01-15T03:39:37;42.70;;;19.70;;
28844;SDS011;15976;47.938;7.758;2024-01-15T03:42:06;47.55;;;21.23;;
28844;SDS011;15976;47.938;7.758;2024-01-15T03:44:33;45.03;;;19.95;;
28844;SDS011;15976;47.938;7.758;2024-01-15T03:47:01;44.15;;;19.95;;
28844;SDS011;15976;47.938;7.758;2024-01-15T03:49:28;42.83;;;18.85;;
28844;SDS011;15976;47.938;7.758;2024-01-15T03:51:55;42.35;;;19.77;;
28844;SDS011;15976;47.938;7.758;2024-01-15T03:54:22;39.75;;;18.17;;
28844;SDS011;15976;47.938;7.758;2024-01-15T03:56:49;42.15;;;18.75;;
28844;SDS011;15976;47.938;7.758;2024-01-15T03:59:16;44.53;;;19.65;;
28844;SDS011;15976;47.938;7.758;2024-01-15T04:01:52;41.55;;;19.85;;
28844;SDS011;15976;47.938;7.758;2024-01-15T04:04:19;46.80;;;20.25;;
28844;SDS011;15976;47.938;7.758;2024-01-15T04:06:47;42.40;;;18.90;;
28844;SDS011;15976;47.938;7.758;2024-01-15T04:09:14;46.33;;;20.08;;
28844;SDS011;15976;47.938;7.758;2024-01-15T04:11:41;46.88;;;20.67;;
28844;SDS011;15976;47.938;7.758;2024-01-15T04:14:08;48.75;;;20.50;;
28844;SDS011;15976;47.938;7.758;2024-01-15T04:16:37;48.28;;;22.35;;
28844;SDS011;15976;47.938;7.758;2024-01-15T04:19:04;44.92;;;20.85;;
28844;SDS011;15976;47.938;7.758;2024-01-15T04:21:31;53.30;;;22.70;;
28844;SDS011;15976;47.938;7.758;2024-01-15T04:23:58;56.35;;;24.48;;
28844;SDS011;15976;47.938;7.758;2024-01-15T04:26:25;58.70;;;25.42;;
28844;SDS011;15976;47.938;7.758;2024-01-15T04:28:55;56.65;;;26.17;;
28844;SDS011;15976;47.938;7.758;2024-01-15T04:31:25;55.00;;;25.25;;
28844;SDS011;15976;47.938;7.758;2024-01-15T04:33:55;64.53;;;27.83;;
28844;SDS011;15976;47.938;7.758;2024-01-15T04:36:23;53.78;;;25.40;;
28844;SDS011;15976;47.938;7.758;2024-01-15T04:38:50;58.33;;;25.65;;
28844;SDS011;15976;47.938;7.758;2024-01-15T04:41:17;61.80;;;27.83;;
28844;SDS011;15976;47.938;7.758;2024-01-15T04:43:44;68.35;;;29.48;;
28844;SDS011;15976;47.938;7.758;2024-01-15T04:46:11;63.08;;;27.85;;
28844;SDS011;15976;47.938;7.758;2024-01-15T04:48:38;65.28;;;28.65;;
28844;SDS011;15976;47.938;7.758;2024-01-15T04:51:05;67.38;;;30.08;;
28844;SDS011;15976;47.938;7.758;2024-01-15T04:53:35;67.15;;;30.13;;
28844;SDS011;15976;47.938;7.758;2024-01-15T04:56:02;75.00;;;31.98;;
28844;SDS011;15976;47.938;7.758;2024-01-15T04:58:30;73.55;;;31.25;;
28844;SDS011;15976;47.938;7.758;2024-01-15T05:00:57;66.25;;;29.95;;
28844;SDS011;15976;47.938;7.758;2024-01-15T05:03:24;76.82;;;30.38;;
28844;SDS011;15976;47.938;7.758;2024-01-15T05:05:51;69.82;;;30.35;;
28844;SDS011;15976;47.938;7.758;2024-01-15T05:08:18;72.63;;;32.17;;
28844;SDS011;15976;47.938;7.758;2024-01-15T05:10:45;73.18;;;31.20;;
28844;SDS011;15976;47.938;7.758;2024-01-15T05:13:12;71.13;;;32.38;;
28844;SDS011;15976;47.938;7.758;2024-01-15T05:15:40;70.00;;;31.77;;
28844;SDS011;15976;47.938;7.758;2024-01-15T05:18:07;76.53;;;32.55;;
28844;SDS011;15976;47.938;7.758;2024-01-15T05:20:34;71.85;;;33.20;;
28844;SDS011;15976;47.938;7.758;2024-01-15T05:23:01;73.85;;;31.70;;
28844;SDS011;15976;47.938;7.758;2024-01-15T05:25:29;70.32;;;31.30;;
28844;SDS011;15976;47.938;7.758;2024-01-15T05:27:56;75.38;;;31.77;;
28844;SDS011;15976;47.938;7.758;2024-01-15T05:30:23;71.18;;;31.70;;
28844;SDS011;15976;47.938;7.758;2024-01-15T05:32:50;71.72;;;32.58;;
28844;SDS011;15976;47.938;7.758;2024-01-15T05:35:17;75.95;;;32.83;;
28844;SDS011;15976;47.938;7.758;2024-01-15T05:37:44;69.53;;;31.35;;
28844;SDS011;15976;47.938;7.758;2024-01-15T05:40:12;69.88;;;31.73;;
28844;SDS011;15976;47.938;7.758;2024-01-15T05:42:40;72.45;;;31.55;;
28844;SDS011;15976;47.938;7.758;2024-01-15T05:45:08;75.40;;;32.00;;
28844;SDS011;15976;47.938;7.758;2024-01-15T05:47:36;67.47;;;30.65;;
28844;SDS011;15976;47.938;7.758;2024-01-15T05:50:03;70.70;;;30.83;;
28844;SDS011;15976;47.938;7.758;2024-01-15T05:52:31;69.85;;;31.23;;
28844;SDS011;15976;47.938;7.758;2024-01-15T05:54:59;65.22;;;30.25;;
28844;SDS011;15976;47.938;7.758;2024-01-15T05:57:26;73.30;;;31.48;;
28844;SDS011;15976;47.938;7.758;2024-01-15T05:59:53;70.18;;;31.38;;
28844;SDS011;15976;47.938;7.758;2024-01-15T06:02:20;67.72;;;31.02;;
28844;SDS011;15976;47.938;7.758;2024-01-15T06:04:48;68.82;;;30.45;;
28844;SDS011;15976;47.938;7.758;2024-01-15T06:07:15;69.72;;;31.25;;
28844;SDS011;15976;47.938;7.758;2024-01-15T06:09:42;75.90;;;32.03;;
28844;SDS011;15976;47.938;7.758;2024-01-15T06:12:09;72.20;;;32.38;;
28844;SDS011;15976;47.938;7.758;2024-01-15T06:14:36;64.80;;;30.88;;
28844;SDS011;15976;47.938;7.758;2024-01-15T06:17:03;71.03;;;31.70;;
28844;SDS011;15976;47.938;7.758;2024-01-15T06:19:31;74.57;;;31.98;;
28844;SDS011;15976;47.938;7.758;2024-01-15T06:21:58;71.55;;;32.03;;
28844;SDS011;15976;47.938;7.758;2024-01-15T06:24:26;69.78;;;31.73;;
28844;SDS011;15976;47.938;7.758;2024-01-15T06:26:53;64.22;;;30.55;;
28844;SDS011;15976;47.938;7.758;2024-01-15T06:29:20;74.38;;;33.22;;
28844;SDS011;15976;47.938;7.758;2024-01-15T06:31:50;71.45;;;31.85;;
28844;SDS011;15976;47.938;7.758;2024-01-15T06:34:17;64.70;;;27.92;;
28844;SDS011;15976;47.938;7.758;2024-01-15T06:36:45;57.95;;;28.02;;
28844;SDS011;15976;47.938;7.758;2024-01-15T06:39:12;61.15;;;30.17;;
28844;SDS011;15976;47.938;7.758;2024-01-15T06:41:39;59.83;;;27.30;;
28844;SDS011;15976;47.938;7.758;2024-01-15T06:44:10;62.53;;;28.02;;
28844;SDS011;15976;47.938;7.758;2024-01-15T06:46:44;64.43;;;27.80;;
28844;SDS011;15976;47.938;7.758;2024-01-15T06:49:11;58.42;;;27.02;;
28844;SDS011;15976;47.938;7.758;2024-01-15T06:51:39;59.60;;;26.63;;
28844;SDS011;15976;47.938;7.758;2024-01-15T06:54:06;60.42;;;27.10;;
28844;SDS011;15976;47.938;7.758;2024-01-15T06:56:33;59.42;;;27.30;;
28844;SDS011;15976;47.938;7.758;2024-01-15T06:59:01;57.97;;;26.90;;
28844;SDS011;15976;47.938;7.758;2024-01-15T07:01:28;58.00;;;25.85;;
28844;SDS011;15976;47.938;7.758;2024-01-15T07:03:56;65.50;;;29.00;;
28844;SDS011;15976;47.938;7.758;2024-01-15T07:06:23;63.13;;;28.48;;
28844;SDS011;15976;47.938;7.758;2024-01-15T07:08:50;58.97;;;26.55;;
28844;SDS011;15976;47.938;7.758;2024-01-15T07:11:17;61.20;;;25.77;;
28844;SDS011;15976;47.938;7.758;2024-01-15T07:13:44;59.35;;;25.98;;
28844;SDS011;15976;47.938;7.758;2024-01-15T07:16:11;51.40;;;24.13;;
28844;SDS011;15976;47.938;7.758;2024-01-15T07:18:41;53.33;;;23.83;;
28844;SDS011;15976;47.938;7.758;2024-01-15T07:21:09;48.15;;;23.90;;
28844;SDS011;15976;47.938;7.758;2024-01-15T07:23:36;39.67;;;19.80;;
28844;SDS011;15976;47.938;7.758;2024-01-15T07:26:03;40.83;;;19.75;;
28844;SDS011;15976;47.938;7.758;2024-01-15T07:28:31;44.95;;;20.40;;
28844;SDS011;15976;47.938;7.758;2024-01-15T07:30:58;41.17;;;18.52;;
28844;SDS011;15976;47.938;7.758;2024-01-15T07:33:27;36.88;;;17.42;;
28844;SDS011;15976;47.938;7.758;2024-01-15T07:35:55;33.20;;;16.55;;
28844;SDS011;15976;47.938;7.758;2024-01-15T07:38:23;34.78;;;15.40;;
28844;SDS011;15976;47.938;7.758;2024-01-15T07:40:50;25.27;;;11.38;;
28844;SDS011;15976;47.938;7.758;2024-01-15T07:43:17;22.60;;;11.93;;
28844;SDS011;15976;47.938;7.758;2024-01-15T07:45:44;23.08;;;11.75;;
28844;SDS011;15976;47.938;7.758;2024-01-15T07:48:12;23.77;;;11.68;;
28844;SDS011;15976;47.938;7.758;2024-01-15T07:50:39;21.17;;;10.45;;
28844;SDS011;15976;47.938;7.758;2024-01-15T07:53:06;20.38;;;10.57;;
28844;SDS011;15976;47.938;7.758;2024-01-15T07:55:33;19.13;;;8.98;;
28844;SDS011;15976;47.938;7.758;2024-01-15T07:58:00;20.63;;;9.82;;
28844;SDS011;15976;47.938;7.758;2024-01-15T08:00:41;19.63;;;9.68;;
28844;SDS011;15976;47.938;7.758;2024-01-15T08:03:08;18.45;;;9.80;;
28844;SDS011;15976;47.938;7.758;2024-01-15T08:05:35;21.90;;;10.35;;
28844;SDS011;15976;47.938;7.758;2024-01-15T08:08:03;21.67;;;10.73;;
28844;SDS011;15976;47.938;7.758;2024-01-15T08:10:30;20.30;;;10.60;;
28844;SDS011;15976;47.938;7.758;2024-01-15T08:12:57;19.48;;;9.75;;
28844;SDS011;15976;47.938;7.758;2024-01-15T08:15:25;21.63;;;10.13;;
28844;SDS011;15976;47.938;7.758;2024-01-15T08:17:57;21.48;;;10.18;;
28844;SDS011;15976;47.938;7.758;2024-01-15T08:20:25;23.48;;;10.55;;
28844;SDS011;15976;47.938;7.758;2024-01-15T08:22:53;18.92;;;9.73;;
28844;SDS011;15976;47.938;7.758;2024-01-15T08:25:20;28.05;;;13.68;;
28844;SDS011;15976;47.938;7.758;2024-01-15T08:27:47;21.42;;;10.43;;
28844;SDS011;15976;47.938;7.758;2024-01-15T08:30:14;18.50;;;10.60;;
28844;SDS011;15976;47.938;7.758;2024-01-15T08:32:42;18.25;;;9.70;;
28844;SDS011;15976;47.938;7.758;2024-01-15T08:35:09;21.30;;;11.10;;
28844;SDS011;15976;47.938;7.758;2024-01-15T08:37:38;19.30;;;10.20;;
28844;SDS011;15976;47.938;7.758;2024-01-15T08:40:05;17.73;;;9.85;;
28844;SDS011;15976;47.938;7.758;2024-01-15T08:42:33;14.43;;;8.43;;
28844;SDS011;15976;47.938;7.758;2024-01-15T08:45:02;14.40;;;7.82;;
28844;SDS011;15976;47.938;7.758;2024-01-15T08:47:29;13.85;;;7.70;;
28844;SDS011;15976;47.938;7.758;2024-01-15T08:49:56;14.00;;;7.93;;
28844;SDS011;15976;47.938;7.758;2024-01-15T08:52:25;15.40;;;7.75;;
28844;SDS011;15976;47.938;7.758;2024-01-15T08:54:52;15.73;;;8.82;;
28844;SDS011;15976;47.938;7.758;2024-01-15T08:57:19;17.85;;;10.70;;
28844;SDS011;15976;47.938;7.758;2024-01-15T08:59:46;18.33;;;10.07;;
28844;SDS011;15976;47.938;7.758;2024-01-15T09:02:13;19.02;;;9.50;;
28844;SDS011;15976;47.938;7.758;2024-01-15T09:04:41;19.88;;;11.43;;
28844;SDS011;15976;47.938;7.758;2024-01-15T09:07:08;21.02;;;10.65;;
28844;SDS011;15976;47.938;7.758;2024-01-15T09:09:35;17.90;;;9.90;;
28844;SDS011;15976;47.938;7.758;2024-01-15T09:12:03;20.08;;;10.27;;
28844;SDS011;15976;47.938;7.758;2024-01-15T09:14:30;22.35;;;12.00;;
28844;SDS011;15976;47.938;7.758;2024-01-15T09:17:03;23.13;;;12.00;;
28844;SDS011;15976;47.938;7.758;2024-01-15T09:19:31;22.95;;;11.52;;
28844;SDS011;15976;47.938;7.758;2024-01-15T09:21:59;22.88;;;11.98;;
28844;SDS011;15976;47.938;7.758;2024-01-15T09:24:26;45.53;;;19.15;;
28844;SDS011;15976;47.938;7.758;2024-01-15T09:26:55;22.80;;;11.15;;
28844;SDS011;15976;47.938;7.758;2024-01-15T09:29:22;19.58;;;10.68;;
28844;SDS011;15976;47.938;7.758;2024-01-15T09:31:51;25.63;;;12.45;;
28844;SDS011;15976;47.938;7.758;2024-01-15T09:34:18;24.60;;;12.30;;
28844;SDS011;15976;47.938;7.758;2024-01-15T09:36:47;25.73;;;11.82;;
28844;SDS011;15976;47.938;7.758;2024-01-15T09:39:15;24.48;;;12.32;;
28844;SDS011;15976;47.938;7.758;2024-01-15T09:41:42;24.48;;;12.32;;
28844;SDS011;15976;47.938;7.758;2024-01-15T09:44:10;24.17;;;13.07;;
28844;SDS011;15976;47.938;7.758;2024-01-15T09:46:38;34.90;;;15.82;;
28844;SDS011;15976;47.938;7.758;2024-01-15T09:49:06;32.25;;;16.73;;
28844;SDS011;15976;47.938;7.758;2024-01-15T09:51:34;26.83;;;13.73;;
28844;SDS011;15976;47.938;7.758;2024-01-15T09:54:03;25.60;;;12.68;;
28844;SDS011;15976;47.938;7.758;2024-01-15T09:56:30;27.08;;;12.80;;
28844;SDS011;15976;47.938;7.758;2024-01-15T09:58:58;26.25;;;13.60;;
28844;SDS011;15976;47.938;7.758;2024-01-15T10:01:26;27.20;;;13.52;;
28844;SDS011;15976;47.938;7.758;2024-01-15T10:03:54;25.92;;;13.75;;
28844;SDS011;15976;47.938;7.758;2024-01-15T10:06:22;29.50;;;14.25;;
28844;SDS011;15976;47.938;7.758;2024-01-15T10:08:50;28.48;;;14.30;;
28844;SDS011;15976;47.938;7.758;2024-01-15T10:11:18;31.45;;;16.42;;
28844;SDS011;15976;47.938;7.758;2024-01-15T10:13:46;30.70;;;16.70;;
28844;SDS011;15976;47.938;7.758;2024-01-15T10:16:16;29.98;;;15.80;;
28844;SDS011;15976;47.938;7.758;2024-01-15T10:18:43;33.03;;;16.83;;
28844;SDS011;15976;47.938;7.758;2024-01-15T10:21:11;34.17;;;16.70;;
28844;SDS011;15976;47.938;7.758;2024-01-15T10:23:38;33.58;;;17.60;;
28844;SDS011;15976;47.938;7.758;2024-01-15T10:26:05;34.80;;;17.65;;
28844;SDS011;15976;47.938;7.758;2024-01-15T10:28:32;36.75;;;18.40;;
28844;SDS011;15976;47.938;7.758;2024-01-15T10:31:00;33.13;;;16.13;;
28844;SDS011;15976;47.938;7.758;2024-01-15T10:33:27;41.30;;;20.48;;
28844;SDS011;15976;47.938;7.758;2024-01-15T10:35:55;34.00;;;17.33;;
28844;SDS011;15976;47.938;7.758;2024-01-15T10:38:23;33.75;;;17.52;;
28844;SDS011;15976;47.938;7.758;2024-01-15T10:40:51;60.47;;;28.02;;
28844;SDS011;15976;47.938;7.758;2024-01-15T10:43:19;42.58;;;20.17;;
28844;SDS011;15976;47.938;7.758;2024-01-15T10:45:48;40.80;;;20.05;;
28844;SDS011;15976;47.938;7.758;2024-01-15T10:48:17;37.15;;;17.52;;
28844;SDS011;15976;47.938;7.758;2024-01-15T10:50:46;41.50;;;18.55;;
28844;SDS011;15976;47.938;7.758;2024-01-15T10:53:15;40.97;;;20.77;;
28844;SDS011;15976;47.938;7.758;2024-01-15T10:55:43;41.15;;;20.98;;
28844;SDS011;15976;47.938;7.758;2024-01-15T10:58:15;43.65;;;21.33;;
28844;SDS011;15976;47.938;7.758;2024-01-15T11:00:44;41.08;;;20.58;;
28844;SDS011;15976;47.938;7.758;2024-01-15T11:03:11;37.13;;;18.48;;
28844;SDS011;15976;47.938;7.758;2024-01-15T11:05:41;31.73;;;15.98;;
28844;SDS011;15976;47.938;7.758;2024-01-15T11:08:09;39.78;;;21.80;;
28844;SDS011;15976;47.938;7.758;2024-01-15T11:10:41;42.55;;;21.30;;
28844;SDS011;15976;47.938;7.758;2024-01-15T11:13:20;43.97;;;21.48;;
28844;SDS011;15976;47.938;7.758;2024-01-15T11:16:00;41.03;;;20.70;;
28844;SDS011;15976;47.938;7.758;2024-01-15T11:18:39;42.78;;;20.42;;
28844;SDS011;15976;47.938;7.758;2024-01-15T11:23:48;42.13;;;20.83;;
28844;SDS011;15976;47.938;7.758;2024-01-15T11:26:36;37.78;;;18.00;;
28844;SDS011;15976;47.938;7.758;2024-01-15T11:29:04;38.85;;;20.42;;
28844;SDS011;15976;47.938;7.758;2024-01-15T11:34:03;41.22;;;20.95;;
28844;SDS011;15976;47.938;7.758;2024-01-15T11:41:55;44.03;;;21.95;;
28844;SDS011;15976;47.938;7.758;2024-01-15T11:44:32;40.85;;;19.38;;
28844;SDS011;15976;47.938;7.758;2024-01-15T11:47:07;44.13;;;20.88;;
28844;SDS011;15976;47.938;7.758;2024-01-15T11:49:56;46.58;;;23.83;;
28844;SDS011;15976;47.938;7.758;2024-01-15T11:52:26;43.78;;;22.88;;
28844;SDS011;15976;47.938;7.758;2024-01-15T11:57:37;47.28;;;23.50;;
28844;SDS011;15976;47.938;7.758;2024-01-15T12:00:10;39.13;;;19.55;;
28844;SDS011;15976;47.938;7.758;2024-01-15T12:02:39;44.35;;;22.58;;
28844;SDS011;15976;47.938;7.758;2024-01-15T12:05:08;45.35;;;24.17;;
28844;SDS011;15976;47.938;7.758;2024-01-15T12:07:45;47.72;;;24.77;;
28844;SDS011;15976;47.938;7.758;2024-01-15T12:10:17;40.17;;;21.90;;
28844;SDS011;15976;47.938;7.758;2024-01-15T12:15:16;44.13;;;22.13;;
28844;SDS011;15976;47.938;7.758;2024-01-15T12:17:44;41.80;;;22.17;;
28844;SDS011;15976;47.938;7.758;2024-01-15T12:20:12;37.25;;;19.17;;
28844;SDS011;15976;47.938;7.758;2024-01-15T12:22:39;38.83;;;20.17;;
28844;SDS011;15976;47.938;7.758;2024-01-15T12:25:25;24.55;;;12.07;;
28844;SDS011;15976;47.938;7.758;2024-01-15T12:27:54;40.10;;;20.92;;
28844;SDS011;15976;47.938;7.758;2024-01-15T12:30:21;40.80;;;21.15;;
28844;SDS011;15976;47.938;7.758;2024-01-15T12:32:49;31.33;;;17.52;;
28844;SDS011;15976;47.938;7.758;2024-01-15T12:35:17;36.10;;;18.73;;
28844;SDS011;15976;47.938;7.758;2024-01-15T12:37:44;30.98;;;17.85;;
28844;SDS011;15976;47.938;7.758;2024-01-15T12:40:18;30.75;;;14.93;;
28844;SDS011;15976;47.938;7.758;2024-01-15T12:42:46;36.80;;;18.77;;
28844;SDS011;15976;47.938;7.758;2024-01-15T12:45:13;38.50;;;18.75;;
28844;SDS011;15976;47.938;7.758;2024-01-15T12:47:41;36.53;;;18.70;;
28844;SDS011;15976;47.938;7.758;2024-01-15T12:50:09;36.40;;;19.13;;
28844;SDS011;15976;47.938;7.758;2024-01-15T12:52:45;35.60;;;20.60;;
28844;SDS011;15976;47.938;7.758;2024-01-15T12:55:13;36.70;;;20.65;;
28844;SDS011;15976;47.938;7.758;2024-01-15T12:57:41;37.97;;;19.85;;
28844;SDS011;15976;47.938;7.758;2024-01-15T13:00:09;37.67;;;20.08;;
28844;SDS011;15976;47.938;7.758;2024-01-15T13:02:41;39.03;;;19.35;;
28844;SDS011;15976;47.938;7.758;2024-01-15T13:05:11;34.38;;;17.63;;
28844;SDS011;15976;47.938;7.758;2024-01-15T13:07:41;38.17;;;18.77;;
28844;SDS011;15976;47.938;7.758;2024-01-15T13:10:09;93.25;;;59.38;;
28844;SDS011;15976;47.938;7.758;2024-01-15T13:12:36;250.18;;;160.68;;
28844;SDS011;15976;47.938;7.758;2024-01-15T13:15:05;74.05;;;45.05;;
28844;SDS011;15976;47.938;7.758;2024-01-15T13:17:39;37.88;;;20.40;;
28844;SDS011;15976;47.938;7.758;2024-01-15T13:20:07;42.65;;;23.25;;
28844;SDS011;15976;47.938;7.758;2024-01-15T13:22:35;51.67;;;24.52;;
28844;SDS011;15976;47.938;7.758;2024-01-15T13:25:02;37.33;;;19.08;;
28844;SDS011;15976;47.938;7.758;2024-01-15T13:27:31;40.28;;;20.55;;
28844;SDS011;15976;47.938;7.758;2024-01-15T13:29:58;38.35;;;20.25;;
28844;SDS011;15976;47.938;7.758;2024-01-15T13:32:28;42.72;;;19.73;;
28844;SDS011;15976;47.938;7.758;2024-01-15T13:34:56;36.33;;;19.42;;
28844;SDS011;15976;47.938;7.758;2024-01-15T13:37:24;44.20;;;20.40;;
28844;SDS011;15976;47.938;7.758;2024-01-15T13:39:51;40.75;;;21.83;;
28844;SDS011;15976;47.938;7.758;2024-01-15T13:42:20;41.00;;;20.67;;
28844;SDS011;15976;47.938;7.758;2024-01-15T13:44:49;38.58;;;20.60;;
28844;SDS011;15976;47.938;7.758;2024-01-15T13:47:16;36.85;;;19.67;;
28844;SDS011;15976;47.938;7.758;2024-01-15T13:49:43;42.13;;;20.92;;
28844;SDS011;15976;47.938;7.758;2024-01-15T13:52:10;41.15;;;22.20;;
28844;SDS011;15976;47.938;7.758;2024-01-15T13:54:39;44.88;;;23.17;;
28844;SDS011;15976;47.938;7.758;2024-01-15T13:57:19;40.28;;;21.73;;
28844;SDS011;15976;47.938;7.758;2024-01-15T13:59:47;41.78;;;21.45;;
28844;SDS011;15976;47.938;7.758;2024-01-15T14:02:15;44.70;;;21.92;;
28844;SDS011;15976;47.938;7.758;2024-01-15T14:04:48;42.40;;;23.40;;
28844;SDS011;15976;47.938;7.758;2024-01-15T14:07:15;45.15;;;23.77;;
28844;SDS011;15976;47.938;7.758;2024-01-15T14:09:43;47.00;;;25.08;;
28844;SDS011;15976;47.938;7.758;2024-01-15T14:12:10;47.28;;;26.35;;
28844;SDS011;15976;47.938;7.758;2024-01-15T14:14:38;40.33;;;21.52;;
28844;SDS011;15976;47.938;7.758;2024-01-15T14:17:07;44.17;;;24.38;;
28844;SDS011;15976;47.938;7.758;2024-01-15T14:19:34;40.35;;;20.65;;
28844;SDS011;15976;47.938;7.758;2024-01-15T14:22:02;43.35;;;22.23;;
28844;SDS011;15976;47.938;7.758;2024-01-15T14:24:29;34.58;;;18.58;;
28844;SDS011;15976;47.938;7.758;2024-01-15T14:26:56;45.22;;;21.77;;
28844;SDS011;15976;47.938;7.758;2024-01-15T14:29:25;46.47;;;24.02;;
28844;SDS011;15976;47.938;7.758;2024-01-15T14:31:53;44.63;;;24.23;;
28844;SDS011;15976;47.938;7.758;2024-01-15T14:34:20;40.30;;;22.42;;
28844;SDS011;15976;47.938;7.758;2024-01-15T14:36:51;44.45;;;22.75;;
28844;SDS011;15976;47.938;7.758;2024-01-15T14:39:23;41.22;;;21.00;;
28844;SDS011;15976;47.938;7.758;2024-01-15T14:41:52;44.50;;;23.15;;